Archival Weather

Bridgeport/Sikorsky

Bridgeport, Connecticut (KBDR)

Report from: Friday, February 23, 2024 4:52 AM EST
Current time: Wednesday, May 29, 2024 8:36 PM EDT

Current weather – Weather history – Daily summaries
Weather forecast

Temperature4.4°C (39.9°F)
Wind chill1.1°C (33.9°F)
Dew point3.3°C (37.9°F)
Winds 8 kts (4.1 m/s, 9.2 mph) East-Northeast (60°)
Visibility10 mi. (16.1 km)
Clouds Scattered clouds 900 ft. (274 m)
Ceiling: Broken clouds 6,500 ft. (1,981 m)
Overcast 10,000 ft. (3,048 m)
Altimeter29.55 in.Hg (1001 mB)
PrecipitiationTrace
Precip. events Rain ended 8:57 AM
Relative humidity93 %
Density altitude-739 ft. (-225 m)
Sea-level pressure100.1 kPa (1001 mB, 29.55 in.Hg)
Remarks Fully automated report
Automated weather observing station with precipitation discriminator
Flight conditions Visual Meteorological Conditions
Raw dataKBDR 230952Z AUTO 06008KT 10SM SCT009 BKN065 OVC100 04/03 A2955 RMK AO2 RAE0857 SLP007 P0000 T00440033
An error has occurred. This application may no longer respond until reloaded. Reload 🗙